sensor_id;sensor_type;location;lat;lon;timestamp;pressure;altitude;pressure_sealevel;temperature;humidity
35848;BME280;22332;51.954;20.118;2023-02-22T00:00:56;100012.54;;;4.60;79.17
35848;BME280;22332;51.954;20.118;2023-02-22T00:04:11;100016.77;;;4.60;78.96
35848;BME280;22332;51.954;20.118;2023-02-22T00:07:19;100016.64;;;4.64;78.77
35848;BME280;22332;51.954;20.118;2023-02-22T00:10:28;100021.88;;;4.62;79.11
35848;BME280;22332;51.954;20.118;2023-02-22T00:13:33;100020.63;;;4.58;79.16
35848;BME280;22332;51.954;20.118;2023-02-22T00:16:39;100022.08;;;4.58;79.40
35848;BME280;22332;51.954;20.118;2023-02-22T00:19:44;100024.36;;;4.55;79.71
35848;BME280;22332;51.954;20.118;2023-02-22T00:22:53;100029.09;;;4.56;79.61
35848;BME280;22332;51.954;20.118;2023-02-22T00:25:59;100032.50;;;4.57;79.55
35848;BME280;22332;51.954;20.118;2023-02-22T00:29:05;100033.30;;;4.61;79.42
35848;BME280;22332;51.954;20.118;2023-02-22T00:32:12;100037.58;;;4.64;79.45
35848;BME280;22332;51.954;20.118;2023-02-22T00:35:21;100037.67;;;4.61;79.73
35848;BME280;22332;51.954;20.118;2023-02-22T00:38:27;100042.75;;;4.55;79.75
35848;BME280;22332;51.954;20.118;2023-02-22T00:41:32;100047.65;;;4.55;79.94
35848;BME280;22332;51.954;20.118;2023-02-22T00:44:38;100045.80;;;4.54;79.82
35848;BME280;22332;51.954;20.118;2023-02-22T00:47:43;100052.41;;;4.59;79.60
35848;BME280;22332;51.954;20.118;2023-02-22T00:50:52;100051.77;;;4.59;79.76
35848;BME280;22332;51.954;20.118;2023-02-22T00:53:58;100053.18;;;4.59;79.38
35848;BME280;22332;51.954;20.118;2023-02-22T00:57:04;100057.52;;;4.60;79.31
35848;BME280;22332;51.954;20.118;2023-02-22T01:00:16;100062.39;;;4.58;79.93
35848;BME280;22332;51.954;20.118;2023-02-22T01:03:22;100063.88;;;4.52;79.67
35848;BME280;22332;51.954;20.118;2023-02-22T01:06:28;100072.31;;;4.55;79.77
35848;BME280;22332;51.954;20.118;2023-02-22T01:09:35;100075.73;;;4.63;79.67
35848;BME280;22332;51.954;20.118;2023-02-22T01:12:42;100076.06;;;4.66;79.64
35848;BME280;22332;51.954;20.118;2023-02-22T01:15:48;100077.48;;;4.66;79.72
35848;BME280;22332;51.954;20.118;2023-02-22T01:18:54;100083.11;;;4.59;79.64
35848;BME280;22332;51.954;20.118;2023-02-22T01:21:59;100085.36;;;4.52;79.50
35848;BME280;22332;51.954;20.118;2023-02-22T01:25:05;100086.38;;;4.46;79.78
35848;BME280;22332;51.954;20.118;2023-02-22T01:28:11;100092.82;;;4.33;80.28
35848;BME280;22332;51.954;20.118;2023-02-22T01:31:17;100097.14;;;4.20;80.61
35848;BME280;22332;51.954;20.118;2023-02-22T01:34:24;100096.39;;;4.09;80.36
35848;BME280;22332;51.954;20.118;2023-02-22T01:37:30;100096.39;;;4.07;80.62
35848;BME280;22332;51.954;20.118;2023-02-22T01:40:37;100098.85;;;4.07;80.41
35848;BME280;22332;51.954;20.118;2023-02-22T01:43:45;100098.16;;;4.09;81.17
35848;BME280;22332;51.954;20.118;2023-02-22T01:46:52;100100.18;;;4.08;80.98
35848;BME280;22332;51.954;20.118;2023-02-22T01:49:57;100100.41;;;4.07;81.01
35848;BME280;22332;51.954;20.118;2023-02-22T01:53:04;100100.63;;;4.04;81.27
35848;BME280;22332;51.954;20.118;2023-02-22T01:56:12;100103.48;;;4.04;81.35
35848;BME280;22332;51.954;20.118;2023-02-22T01:59:18;100106.92;;;4.05;81.76
35848;BME280;22332;51.954;20.118;2023-02-22T02:02:25;100107.96;;;4.08;81.59
35848;BME280;22332;51.954;20.118;2023-02-22T02:05:32;100114.42;;;4.11;81.74
35848;BME280;22332;51.954;20.118;2023-02-22T02:08:45;100118.70;;;4.10;81.78
35848;BME280;22332;51.954;20.118;2023-02-22T02:11:55;100122.02;;;4.08;82.01
35848;BME280;22332;51.954;20.118;2023-02-22T02:15:22;100122.84;;;4.06;81.87
35848;BME280;22332;51.954;20.118;2023-02-22T02:18:28;100123.65;;;4.02;82.41
35848;BME280;22332;51.954;20.118;2023-02-22T02:21:46;100123.61;;;4.03;82.29
35848;BME280;22332;51.954;20.118;2023-02-22T02:25:22;100125.30;;;4.04;83.14
35848;BME280;22332;51.954;20.118;2023-02-22T02:28:58;100124.89;;;4.05;82.58
35848;BME280;22332;51.954;20.118;2023-02-22T02:32:23;100127.49;;;4.03;82.78
35848;BME280;22332;51.954;20.118;2023-02-22T02:35:41;100122.01;;;3.99;82.66
35848;BME280;22332;51.954;20.118;2023-02-22T02:38:56;100123.77;;;3.89;83.36
35848;BME280;22332;51.954;20.118;2023-02-22T02:42:07;100126.86;;;3.83;82.86
35848;BME280;22332;51.954;20.118;2023-02-22T02:45:18;100132.86;;;3.80;83.14
35848;BME280;22332;51.954;20.118;2023-02-22T02:48:28;100134.15;;;3.79;83.02
35848;BME280;22332;51.954;20.118;2023-02-22T02:51:38;100131.92;;;3.83;82.93
35848;BME280;22332;51.954;20.118;2023-02-22T02:54:46;100134.17;;;3.84;82.89
35848;BME280;22332;51.954;20.118;2023-02-22T02:57:53;100138.77;;;3.79;83.09
35848;BME280;22332;51.954;20.118;2023-02-22T03:01:01;100137.27;;;3.75;82.88
35848;BME280;22332;51.954;20.118;2023-02-22T03:04:18;100139.46;;;3.74;82.98
35848;BME280;22332;51.954;20.118;2023-02-22T03:11:04;100146.54;;;3.73;82.87
35848;BME280;22332;51.954;20.118;2023-02-22T03:14:24;100147.22;;;3.79;82.68
35848;BME280;22332;51.954;20.118;2023-02-22T03:17:40;100149.84;;;3.81;82.94
35848;BME280;22332;51.954;20.118;2023-02-22T03:20:54;100151.15;;;3.80;83.04
35848;BME280;22332;51.954;20.118;2023-02-22T03:24:07;100153.23;;;3.78;82.86
35848;BME280;22332;51.954;20.118;2023-02-22T03:27:19;100160.44;;;3.73;83.31
35848;BME280;22332;51.954;20.118;2023-02-22T03:30:32;100157.70;;;3.72;82.97
35848;BME280;22332;51.954;20.118;2023-02-22T03:33:43;100165.36;;;3.71;83.04
35848;BME280;22332;51.954;20.118;2023-02-22T03:36:55;100162.52;;;3.72;82.89
35848;BME280;22332;51.954;20.118;2023-02-22T03:40:04;100168.42;;;3.70;82.73
35848;BME280;22332;51.954;20.118;2023-02-22T03:43:26;100170.50;;;3.68;82.70
35848;BME280;22332;51.954;20.118;2023-02-22T03:46:36;100173.96;;;3.66;82.54
35848;BME280;22332;51.954;20.118;2023-02-22T03:49:48;100178.27;;;3.58;82.37
35848;BME280;22332;51.954;20.118;2023-02-22T03:52:58;100181.59;;;3.51;82.42
35848;BME280;22332;51.954;20.118;2023-02-22T03:56:08;100185.27;;;3.41;82.54
35848;BME280;22332;51.954;20.118;2023-02-22T03:59:16;100190.89;;;3.31;82.48
35848;BME280;22332;51.954;20.118;2023-02-22T04:02:22;100194.88;;;3.30;82.49
35848;BME280;22332;51.954;20.118;2023-02-22T04:05:29;100196.02;;;3.33;82.40
35848;BME280;22332;51.954;20.118;2023-02-22T04:08:47;100197.14;;;3.32;82.31
35848;BME280;22332;51.954;20.118;2023-02-22T04:12:15;100198.60;;;3.34;82.10
35848;BME280;22332;51.954;20.118;2023-02-22T04:15:35;100201.98;;;3.36;82.00
35848;BME280;22332;51.954;20.118;2023-02-22T04:18:43;100198.51;;;3.33;81.85
35848;BME280;22332;51.954;20.118;2023-02-22T04:21:50;100201.89;;;3.30;81.79
35848;BME280;22332;51.954;20.118;2023-02-22T04:24:59;100203.71;;;3.29;81.94
35848;BME280;22332;51.954;20.118;2023-02-22T04:28:05;100210.83;;;3.20;81.75
35848;BME280;22332;51.954;20.118;2023-02-22T04:31:17;100213.61;;;3.15;81.73
35848;BME280;22332;51.954;20.118;2023-02-22T04:34:22;100214.08;;;3.16;81.76
35848;BME280;22332;51.954;20.118;2023-02-22T04:37:28;100214.96;;;3.13;81.74
35848;BME280;22332;51.954;20.118;2023-02-22T04:40:34;100219.46;;;3.14;81.66
35848;BME280;22332;51.954;20.118;2023-02-22T04:43:41;100221.05;;;3.12;81.50
35848;BME280;22332;51.954;20.118;2023-02-22T04:46:54;100224.38;;;3.10;81.40
35848;BME280;22332;51.954;20.118;2023-02-22T04:50:01;100221.25;;;3.07;81.44
35848;BME280;22332;51.954;20.118;2023-02-22T04:53:07;100226.62;;;3.12;81.62
35848;BME280;22332;51.954;20.118;2023-02-22T04:56:17;100228.94;;;3.20;81.44
35848;BME280;22332;51.954;20.118;2023-02-22T04:59:23;100228.08;;;3.27;81.43
35848;BME280;22332;51.954;20.118;2023-02-22T05:02:36;100229.15;;;3.32;81.17
35848;BME280;22332;51.954;20.118;2023-02-22T05:05:44;100226.91;;;3.26;80.97
35848;BME280;22332;51.954;20.118;2023-02-22T05:08:49;100222.33;;;3.19;81.19
35848;BME280;22332;51.954;20.118;2023-02-22T05:11:56;100226.35;;;3.09;81.12
35848;BME280;22332;51.954;20.118;2023-02-22T05:15:02;100226.52;;;3.04;81.27
35848;BME280;22332;51.954;20.118;2023-02-22T05:18:07;100234.70;;;3.03;81.38
35848;BME280;22332;51.954;20.118;2023-02-22T05:21:13;100238.46;;;3.04;81.35
35848;BME280;22332;51.954;20.118;2023-02-22T05:24:18;100247.57;;;2.99;81.14
35848;BME280;22332;51.954;20.118;2023-02-22T05:27:24;100247.18;;;2.92;81.28
35848;BME280;22332;51.954;20.118;2023-02-22T05:30:31;100246.73;;;2.88;81.26
35848;BME280;22332;51.954;20.118;2023-02-22T05:33:37;100248.46;;;2.86;81.40
35848;BME280;22332;51.954;20.118;2023-02-22T05:36:43;100251.30;;;2.88;81.55
35848;BME280;22332;51.954;20.118;2023-02-22T05:39:49;100254.77;;;2.94;81.51
35848;BME280;22332;51.954;20.118;2023-02-22T05:42:55;100256.55;;;3.02;81.37
35848;BME280;22332;51.954;20.118;2023-02-22T05:46:01;100262.17;;;3.05;81.36
35848;BME280;22332;51.954;20.118;2023-02-22T05:49:07;100264.67;;;2.99;81.18
35848;BME280;22332;51.954;20.118;2023-02-22T05:52:12;100268.71;;;2.91;81.29
35848;BME280;22332;51.954;20.118;2023-02-22T05:55:20;100270.70;;;2.90;81.25
35848;BME280;22332;51.954;20.118;2023-02-22T05:58:26;100274.34;;;2.91;81.32
35848;BME280;22332;51.954;20.118;2023-02-22T06:01:31;100278.06;;;2.87;81.22
35848;BME280;22332;51.954;20.118;2023-02-22T06:04:37;100286.30;;;2.83;81.05
35848;BME280;22332;51.954;20.118;2023-02-22T06:07:43;100286.14;;;2.88;81.31
35848;BME280;22332;51.954;20.118;2023-02-22T06:10:48;100290.34;;;3.01;81.23
35848;BME280;22332;51.954;20.118;2023-02-22T06:13:54;100293.34;;;3.16;81.22
35848;BME280;22332;51.954;20.118;2023-02-22T06:17:00;100298.88;;;3.26;80.88
35848;BME280;22332;51.954;20.118;2023-02-22T06:20:06;100301.58;;;3.35;81.11
35848;BME280;22332;51.954;20.118;2023-02-22T06:23:12;100301.69;;;3.44;80.89
35848;BME280;22332;51.954;20.118;2023-02-22T06:26:18;100302.59;;;3.48;80.67
35848;BME280;22332;51.954;20.118;2023-02-22T06:29:24;100302.44;;;3.53;80.78
35848;BME280;22332;51.954;20.118;2023-02-22T06:32:30;100304.31;;;3.62;80.81
35848;BME280;22332;51.954;20.118;2023-02-22T06:35:35;100305.88;;;3.67;80.74
35848;BME280;22332;51.954;20.118;2023-02-22T06:38:41;100307.30;;;3.67;80.55
35848;BME280;22332;51.954;20.118;2023-02-22T06:41:47;100312.73;;;3.70;80.56
35848;BME280;22332;51.954;20.118;2023-02-22T06:44:54;100322.80;;;3.69;80.06
35848;BME280;22332;51.954;20.118;2023-02-22T06:48:00;100327.21;;;3.68;80.37
35848;BME280;22332;51.954;20.118;2023-02-22T06:51:06;100325.71;;;3.70;80.43
35848;BME280;22332;51.954;20.118;2023-02-22T06:54:13;100327.58;;;3.68;80.25
35848;BME280;22332;51.954;20.118;2023-02-22T06:57:19;100333.48;;;3.67;80.28
35848;BME280;22332;51.954;20.118;2023-02-22T07:00:26;100336.52;;;3.66;80.40
35848;BME280;22332;51.954;20.118;2023-02-22T07:03:32;100337.39;;;3.74;80.26
35848;BME280;22332;51.954;20.118;2023-02-22T07:06:37;100340.93;;;3.79;80.19
35848;BME280;22332;51.954;20.118;2023-02-22T07:09:47;100339.96;;;3.82;80.19
35848;BME280;22332;51.954;20.118;2023-02-22T07:12:53;100344.08;;;3.89;79.84
35848;BME280;22332;51.954;20.118;2023-02-22T07:16:02;100344.77;;;3.84;79.69
35848;BME280;22332;51.954;20.118;2023-02-22T07:19:07;100346.44;;;3.83;80.14
35848;BME280;22332;51.954;20.118;2023-02-22T07:22:13;100348.71;;;3.88;79.98
35848;BME280;22332;51.954;20.118;2023-02-22T07:25:21;100352.77;;;3.86;79.63
35848;BME280;22332;51.954;20.118;2023-02-22T07:28:27;100361.98;;;3.85;79.68
35848;BME280;22332;51.954;20.118;2023-02-22T07:31:36;100360.26;;;3.89;79.56
35848;BME280;22332;51.954;20.118;2023-02-22T07:34:42;100363.38;;;4.00;79.97
35848;BME280;22332;51.954;20.118;2023-02-22T07:37:48;100356.11;;;4.18;79.90
35848;BME280;22332;51.954;20.118;2023-02-22T07:40:54;100354.43;;;4.32;79.68
35848;BME280;22332;51.954;20.118;2023-02-22T07:44:01;100356.23;;;4.36;79.05
35848;BME280;22332;51.954;20.118;2023-02-22T07:47:06;100356.68;;;4.30;78.53
35848;BME280;22332;51.954;20.118;2023-02-22T07:50:14;100355.41;;;4.33;79.53
35848;BME280;22332;51.954;20.118;2023-02-22T07:53:23;100353.32;;;4.47;79.07
35848;BME280;22332;51.954;20.118;2023-02-22T07:56:28;100357.83;;;4.51;79.32
35848;BME280;22332;51.954;20.118;2023-02-22T07:59:34;100356.06;;;4.53;79.01
35848;BME280;22332;51.954;20.118;2023-02-22T08:02:39;100353.42;;;4.53;78.42
35848;BME280;22332;51.954;20.118;2023-02-22T08:05:48;100352.75;;;4.52;78.64
35848;BME280;22332;51.954;20.118;2023-02-22T08:08:54;100356.77;;;4.53;78.60
35848;BME280;22332;51.954;20.118;2023-02-22T08:12:00;100360.09;;;4.63;78.90
35848;BME280;22332;51.954;20.118;2023-02-22T08:15:08;100356.02;;;4.83;78.82
35848;BME280;22332;51.954;20.118;2023-02-22T08:18:16;100359.58;;;4.94;78.01
35848;BME280;22332;51.954;20.118;2023-02-22T08:21:22;100360.81;;;4.97;77.94
35848;BME280;22332;51.954;20.118;2023-02-22T08:24:27;100360.44;;;4.99;78.03
35848;BME280;22332;51.954;20.118;2023-02-22T08:27:33;100357.95;;;5.11;78.51
35848;BME280;22332;51.954;20.118;2023-02-22T08:30:39;100359.06;;;5.29;78.19
35848;BME280;22332;51.954;20.118;2023-02-22T08:33:48;100362.77;;;5.43;77.99
35848;BME280;22332;51.954;20.118;2023-02-22T08:36:54;100366.88;;;5.56;78.09
35848;BME280;22332;51.954;20.118;2023-02-22T08:40:00;100367.47;;;5.67;77.88
35848;BME280;22332;51.954;20.118;2023-02-22T08:43:05;100369.77;;;5.74;77.42
35848;BME280;22332;51.954;20.118;2023-02-22T08:46:11;100374.90;;;5.83;77.36
35848;BME280;22332;51.954;20.118;2023-02-22T08:49:17;100378.39;;;5.90;76.36
35848;BME280;22332;51.954;20.118;2023-02-22T08:52:23;100373.86;;;5.92;77.03
35848;BME280;22332;51.954;20.118;2023-02-22T08:55:33;100372.91;;;6.02;76.87
35848;BME280;22332;51.954;20.118;2023-02-22T08:58:38;100373.88;;;6.12;76.62
35848;BME280;22332;51.954;20.118;2023-02-22T09:01:44;100380.13;;;6.13;76.33
35848;BME280;22332;51.954;20.118;2023-02-22T09:04:49;100382.92;;;6.11;75.94
35848;BME280;22332;51.954;20.118;2023-02-22T09:07:55;100385.29;;;6.15;75.39
35848;BME280;22332;51.954;20.118;2023-02-22T09:11:00;100387.02;;;6.07;74.61
35848;BME280;22332;51.954;20.118;2023-02-22T09:14:06;100393.33;;;6.03;75.04
35848;BME280;22332;51.954;20.118;2023-02-22T09:17:12;100393.64;;;6.01;75.13
35848;BME280;22332;51.954;20.118;2023-02-22T09:20:18;100391.28;;;6.04;75.04
35848;BME280;22332;51.954;20.118;2023-02-22T09:23:25;100391.81;;;6.02;75.04
35848;BME280;22332;51.954;20.118;2023-02-22T09:26:30;100397.83;;;6.04;75.42
35848;BME280;22332;51.954;20.118;2023-02-22T09:29:36;100398.08;;;6.05;74.95
35848;BME280;22332;51.954;20.118;2023-02-22T09:32:42;100397.42;;;6.07;74.43
35848;BME280;22332;51.954;20.118;2023-02-22T09:35:49;100400.56;;;6.05;74.40
35848;BME280;22332;51.954;20.118;2023-02-22T09:38:54;100398.77;;;6.05;74.16
35848;BME280;22332;51.954;20.118;2023-02-22T09:42:06;100401.70;;;5.97;73.04
35848;BME280;22332;51.954;20.118;2023-02-22T09:45:17;100400.96;;;5.77;73.30
35848;BME280;22332;51.954;20.118;2023-02-22T09:48:25;100402.29;;;5.71;73.95
35848;BME280;22332;51.954;20.118;2023-02-22T09:51:36;100398.16;;;5.67;73.58
35848;BME280;22332;51.954;20.118;2023-02-22T09:54:46;100402.64;;;5.73;74.28
35848;BME280;22332;51.954;20.118;2023-02-22T09:57:57;100402.79;;;5.71;71.90
35848;BME280;22332;51.954;20.118;2023-02-22T10:01:14;100404.92;;;5.52;71.92
35848;BME280;22332;51.954;20.118;2023-02-22T10:04:23;100409.52;;;5.48;73.00
35848;BME280;22332;51.954;20.118;2023-02-22T10:07:38;100406.53;;;5.55;72.80
35848;BME280;22332;51.954;20.118;2023-02-22T10:10:45;100404.66;;;5.56;72.66
35848;BME280;22332;51.954;20.118;2023-02-22T10:14:04;100402.02;;;5.70;73.47
35848;BME280;22332;51.954;20.118;2023-02-22T10:17:20;100405.34;;;5.96;72.88
35848;BME280;22332;51.954;20.118;2023-02-22T10:20:41;100404.30;;;5.96;71.07
35848;BME280;22332;51.954;20.118;2023-02-22T10:23:57;100402.41;;;5.92;72.17
35848;BME280;22332;51.954;20.118;2023-02-22T10:27:15;100400.17;;;6.01;72.89
35848;BME280;22332;51.954;20.118;2023-02-22T10:30:23;100396.54;;;6.18;72.97
35848;BME280;22332;51.954;20.118;2023-02-22T10:33:35;100394.65;;;6.31;71.40
35848;BME280;22332;51.954;20.118;2023-02-22T10:36:42;100396.28;;;6.33;71.90
35848;BME280;22332;51.954;20.118;2023-02-22T10:39:50;100395.17;;;6.36;72.32
35848;BME280;22332;51.954;20.118;2023-02-22T10:42:58;100397.33;;;6.37;70.17
35848;BME280;22332;51.954;20.118;2023-02-22T10:46:08;100396.08;;;6.22;71.01
35848;BME280;22332;51.954;20.118;2023-02-22T10:49:21;100399.54;;;6.11;70.14
35848;BME280;22332;51.954;20.118;2023-02-22T10:52:30;100396.21;;;6.09;71.07
35848;BME280;22332;51.954;20.118;2023-02-22T10:56:10;100397.23;;;6.02;70.11
35848;BME280;22332;51.954;20.118;2023-02-22T10:59:29;100397.23;;;5.91;70.30
35848;BME280;22332;51.954;20.118;2023-02-22T11:02:36;100398.42;;;5.68;67.88
35848;BME280;22332;51.954;20.118;2023-02-22T11:05:42;100399.48;;;5.52;69.53
35848;BME280;22332;51.954;20.118;2023-02-22T11:08:47;100402.20;;;5.51;70.42
35848;BME280;22332;51.954;20.118;2023-02-22T11:12:10;100403.34;;;5.48;69.23
35848;BME280;22332;51.954;20.118;2023-02-22T11:15:27;100403.39;;;5.36;69.35
35848;BME280;22332;51.954;20.118;2023-02-22T11:18:34;100404.46;;;5.30;69.39
35848;BME280;22332;51.954;20.118;2023-02-22T11:21:40;100402.40;;;5.25;69.70
35848;BME280;22332;51.954;20.118;2023-02-22T11:24:48;100396.98;;;5.25;69.62
35848;BME280;22332;51.954;20.118;2023-02-22T11:27:55;100400.30;;;5.18;68.58
35848;BME280;22332;51.954;20.118;2023-02-22T11:31:14;100395.77;;;5.10;69.48
35848;BME280;22332;51.954;20.118;2023-02-22T11:34:30;100400.89;;;5.10;68.90
35848;BME280;22332;51.954;20.118;2023-02-22T11:37:37;100397.33;;;4.98;67.78
35848;BME280;22332;51.954;20.118;2023-02-22T11:40:43;100400.61;;;4.90;68.67
35848;BME280;22332;51.954;20.118;2023-02-22T11:43:50;100397.30;;;4.92;68.42
35848;BME280;22332;51.954;20.118;2023-02-22T11:46:59;100394.66;;;4.92;68.86
35848;BME280;22332;51.954;20.118;2023-02-22T11:53:28;100402.23;;;4.92;68.05
35848;BME280;22332;51.954;20.118;2023-02-22T11:56:38;100402.84;;;4.98;68.44
35848;BME280;22332;51.954;20.118;2023-02-22T11:59:55;100400.39;;;5.07;67.28
35848;BME280;22332;51.954;20.118;2023-02-22T12:03:20;100406.55;;;5.12;67.23
35848;BME280;22332;51.954;20.118;2023-02-22T12:06:38;100404.09;;;5.19;66.80
35848;BME280;22332;51.954;20.118;2023-02-22T12:09:53;100403.51;;;5.22;67.29
35848;BME280;22332;51.954;20.118;2023-02-22T12:13:13;100403.21;;;5.33;67.72
35848;BME280;22332;51.954;20.118;2023-02-22T12:16:30;100407.67;;;5.40;67.06
35848;BME280;22332;51.954;20.118;2023-02-22T12:19:40;100412.20;;;5.33;66.58
35848;BME280;22332;51.954;20.118;2023-02-22T12:22:54;100410.90;;;5.32;67.27
35848;BME280;22332;51.954;20.118;2023-02-22T12:26:04;100416.16;;;5.32;66.07
35848;BME280;22332;51.954;20.118;2023-02-22T12:29:16;100420.23;;;5.30;67.26
35848;BME280;22332;51.954;20.118;2023-02-22T12:32:33;100418.38;;;5.40;67.33
35848;BME280;22332;51.954;20.118;2023-02-22T12:35:43;100420.08;;;5.46;67.21
35848;BME280;22332;51.954;20.118;2023-02-22T12:38:58;100419.73;;;5.45;66.73
35848;BME280;22332;51.954;20.118;2023-02-22T12:42:14;100413.63;;;5.44;66.65
35848;BME280;22332;51.954;20.118;2023-02-22T12:45:27;100418.23;;;5.42;66.90
35848;BME280;22332;51.954;20.118;2023-02-22T12:48:42;100424.19;;;5.33;66.35
35848;BME280;22332;51.954;20.118;2023-02-22T12:51:54;100425.96;;;5.19;65.74
35848;BME280;22332;51.954;20.118;2023-02-22T12:55:05;100427.48;;;5.03;65.38
35848;BME280;22332;51.954;20.118;2023-02-22T12:58:21;100428.05;;;4.96;65.59
35848;BME280;22332;51.954;20.118;2023-02-22T13:01:33;100426.90;;;4.94;65.45
35848;BME280;22332;51.954;20.118;2023-02-22T13:04:41;100425.00;;;5.01;65.68
35848;BME280;22332;51.954;20.118;2023-02-22T13:07:53;100425.46;;;5.04;65.24
35848;BME280;22332;51.954;20.118;2023-02-22T13:11:10;100428.78;;;5.05;65.61
35848;BME280;22332;51.954;20.118;2023-02-22T13:14:34;100427.55;;;5.14;65.89
35848;BME280;22332;51.954;20.118;2023-02-22T13:17:50;100432.02;;;5.23;66.15
35848;BME280;22332;51.954;20.118;2023-02-22T13:21:05;100436.04;;;5.24;65.37
35848;BME280;22332;51.954;20.118;2023-02-22T13:24:20;100439.51;;;5.22;66.15
35848;BME280;22332;51.954;20.118;2023-02-22T13:27:36;100442.02;;;5.24;66.10
35848;BME280;22332;51.954;20.118;2023-02-22T13:30:46;100443.54;;;5.25;66.35
35848;BME280;22332;51.954;20.118;2023-02-22T13:34:10;100448.56;;;5.16;64.69
35848;BME280;22332;51.954;20.118;2023-02-22T13:37:37;100444.15;;;5.04;65.39
35848;BME280;22332;51.954;20.118;2023-02-22T13:41:01;100452.55;;;4.98;65.24
35848;BME280;22332;51.954;20.118;2023-02-22T13:44:27;100453.71;;;4.89;65.63
35848;BME280;22332;51.954;20.118;2023-02-22T13:51:22;100463.80;;;4.74;65.84
35848;BME280;22332;51.954;20.118;2023-02-22T13:54:39;100466.42;;;4.67;65.67
35848;BME280;22332;51.954;20.118;2023-02-22T13:57:47;100471.27;;;4.61;65.76
35848;BME280;22332;51.954;20.118;2023-02-22T14:00:56;100472.34;;;4.53;65.57
35848;BME280;22332;51.954;20.118;2023-02-22T14:04:20;100473.65;;;4.44;65.38
35848;BME280;22332;51.954;20.118;2023-02-22T14:07:52;100474.44;;;4.30;65.11
35848;BME280;22332;51.954;20.118;2023-02-22T14:10:58;100466.52;;;4.26;65.65
35848;BME280;22332;51.954;20.118;2023-02-22T14:14:15;100465.83;;;4.33;65.84
35848;BME280;22332;51.954;20.118;2023-02-22T14:17:26;100465.34;;;4.35;65.44
35848;BME280;22332;51.954;20.118;2023-02-22T14:20:35;100464.59;;;4.36;65.51
35848;BME280;22332;51.954;20.118;2023-02-22T14:23:42;100465.90;;;4.37;65.59
35848;BME280;22332;51.954;20.118;2023-02-22T14:27:00;100467.20;;;4.44;65.42
35848;BME280;22332;51.954;20.118;2023-02-22T14:30:20;100470.08;;;4.48;65.22
35848;BME280;22332;51.954;20.118;2023-02-22T14:34:05;100471.21;;;4.49;65.28
35848;BME280;22332;51.954;20.118;2023-02-22T14:37:15;100470.85;;;4.49;64.62
35848;BME280;22332;51.954;20.118;2023-02-22T14:40:25;100469.25;;;4.42;64.72
35848;BME280;22332;51.954;20.118;2023-02-22T14:43:31;100476.64;;;4.37;64.64
35848;BME280;22332;51.954;20.118;2023-02-22T14:46:41;100475.73;;;4.32;64.74
35848;BME280;22332;51.954;20.118;2023-02-22T14:49:56;100478.27;;;4.26;64.53
35848;BME280;22332;51.954;20.118;2023-02-22T14:53:11;100477.94;;;4.24;64.87
35848;BME280;22332;51.954;20.118;2023-02-22T14:56:21;100479.73;;;4.23;64.73
35848;BME280;22332;51.954;20.118;2023-02-22T14:59:28;100478.09;;;4.21;64.42
35848;BME280;22332;51.954;20.118;2023-02-22T15:02:40;100478.22;;;4.17;64.20
35848;BME280;22332;51.954;20.118;2023-02-22T15:05:46;100478.73;;;4.12;64.41
35848;BME280;22332;51.954;20.118;2023-02-22T15:09:10;100481.45;;;4.08;64.23
35848;BME280;22332;51.954;20.118;2023-02-22T15:12:28;100482.58;;;4.05;64.46
35848;BME280;22332;51.954;20.118;2023-02-22T15:15:35;100483.42;;;4.05;64.13
35848;BME280;22332;51.954;20.118;2023-02-22T15:18:43;100490.89;;;4.04;64.27
35848;BME280;22332;51.954;20.118;2023-02-22T15:21:50;100492.48;;;4.04;64.29
35848;BME280;22332;51.954;20.118;2023-02-22T15:25:01;100492.46;;;4.02;63.78
35848;BME280;22332;51.954;20.118;2023-02-22T15:28:10;100493.10;;;3.92;63.62
35848;BME280;22332;51.954;20.118;2023-02-22T15:31:24;100494.19;;;3.84;63.83
35848;BME280;22332;51.954;20.118;2023-02-22T15:34:31;100492.82;;;3.78;63.80
35848;BME280;22332;51.954;20.118;2023-02-22T15:37:37;100492.11;;;3.73;63.76
35848;BME280;22332;51.954;20.118;2023-02-22T15:40:43;100491.42;;;3.67;63.81
35848;BME280;22332;51.954;20.118;2023-02-22T15:44:02;100490.41;;;3.62;63.62
35848;BME280;22332;51.954;20.118;2023-02-22T15:47:12;100491.48;;;3.56;63.73
35848;BME280;22332;51.954;20.118;2023-02-22T15:50:25;100494.30;;;3.51;63.68
35848;BME280;22332;51.954;20.118;2023-02-22T15:53:36;100496.25;;;3.43;63.21
35848;BME280;22332;51.954;20.118;2023-02-22T15:56:48;100498.70;;;3.29;63.13
35848;BME280;22332;51.954;20.118;2023-02-22T15:59:56;100502.65;;;3.20;63.52
35848;BME280;22332;51.954;20.118;2023-02-22T16:03:02;100508.66;;;3.20;63.82
35848;BME280;22332;51.954;20.118;2023-02-22T16:06:11;100510.91;;;3.17;63.43
35848;BME280;22332;51.954;20.118;2023-02-22T16:09:20;100515.31;;;3.11;63.62
35848;BME280;22332;51.954;20.118;2023-02-22T16:12:28;100519.81;;;3.07;63.21
35848;BME280;22332;51.954;20.118;2023-02-22T16:15:35;100519.59;;;3.03;63.45
35848;BME280;22332;51.954;20.118;2023-02-22T16:18:40;100525.16;;;3.00;63.50
35848;BME280;22332;51.954;20.118;2023-02-22T16:21:53;100525.95;;;2.96;63.33
35848;BME280;22332;51.954;20.118;2023-02-22T16:25:22;100528.17;;;2.92;63.35
35848;BME280;22332;51.954;20.118;2023-02-22T16:28:37;100530.66;;;2.86;63.34
35848;BME280;22332;51.954;20.118;2023-02-22T16:31:59;100535.89;;;2.84;63.39
35848;BME280;22332;51.954;20.118;2023-02-22T16:35:07;100539.79;;;2.83;63.51
35848;BME280;22332;51.954;20.118;2023-02-22T16:38:21;100543.54;;;2.80;63.16
35848;BME280;22332;51.954;20.118;2023-02-22T16:41:31;100550.48;;;2.72;62.82
35848;BME280;22332;51.954;20.118;2023-02-22T16:44:37;100553.77;;;2.65;63.06